createdAt,value
2023-02-27T00:00:35.965Z,12.10
2023-02-27T00:01:58.823Z,11.80
2023-02-27T00:03:01.965Z,8.90
2023-02-27T00:04:05.330Z,9.30
2023-02-27T00:05:08.598Z,13.60
2023-02-27T00:06:11.465Z,10.00
2023-02-27T00:07:14.360Z,8.70
2023-02-27T00:08:17.219Z,9.80
2023-02-27T00:09:20.117Z,7.20
2023-02-27T00:10:23.452Z,10.40
2023-02-27T00:11:26.578Z,11.60
2023-02-27T00:12:31.144Z,9.90
2023-02-27T00:13:34.017Z,11.10
2023-02-27T00:14:36.889Z,9.70
2023-02-27T00:15:41.164Z,8.70
2023-02-27T00:16:44.104Z,9.20
2023-02-27T00:17:47.018Z,9.90
2023-02-27T00:18:50.081Z,11.30
2023-02-27T00:19:52.945Z,8.20
2023-02-27T00:20:55.816Z,11.30
2023-02-27T00:21:58.683Z,12.40
2023-02-27T00:23:01.536Z,8.00
2023-02-27T00:24:04.790Z,10.20
2023-02-27T00:25:08.434Z,11.30
2023-02-27T00:26:11.390Z,10.50
2023-02-27T00:27:14.615Z,13.90
2023-02-27T00:28:19.181Z,9.70
2023-02-27T00:29:22.356Z,9.50
2023-02-27T00:30:28.126Z,10.00
2023-02-27T00:31:31.101Z,12.10
2023-02-27T00:32:36.916Z,8.70
2023-02-27T00:33:39.944Z,10.00
2023-02-27T00:34:45.267Z,8.60
2023-02-27T00:35:59.197Z,9.00
2023-02-27T00:37:03.950Z,9.20
2023-02-27T00:38:06.925Z,10.30
2023-02-27T00:39:09.916Z,8.90
2023-02-27T00:40:14.008Z,14.10
2023-02-27T00:41:16.989Z,10.40
2023-02-27T00:42:19.876Z,8.40
2023-02-27T00:43:22.742Z,11.10
2023-02-27T00:44:26.114Z,12.60
2023-02-27T00:45:29.108Z,11.60
2023-02-27T00:46:32.041Z,11.40
2023-02-27T00:47:35.367Z,12.60
2023-02-27T00:48:38.225Z,15.40
2023-02-27T00:49:41.167Z,12.70
2023-02-27T00:50:44.899Z,13.90
2023-02-27T00:51:48.244Z,14.70
2023-02-27T00:52:51.131Z,12.50
2023-02-27T00:53:54.002Z,14.10
2023-02-27T00:54:57.312Z,13.90
2023-02-27T00:56:00.351Z,12.00
2023-02-27T00:57:03.529Z,14.40
2023-02-27T00:58:06.387Z,10.60
2023-02-27T00:59:09.294Z,11.90
2023-02-27T01:00:12.734Z,11.50
2023-02-27T01:01:15.789Z,10.30
2023-02-27T01:02:19.172Z,10.00
2023-02-27T01:03:22.041Z,10.40
2023-02-27T01:04:25.277Z,11.40
2023-02-27T01:05:29.530Z,11.50
2023-02-27T01:06:35.639Z,9.10
2023-02-27T01:07:38.765Z,11.80
2023-02-27T01:08:42.375Z,10.10
2023-02-27T01:09:45.316Z,10.10
2023-02-27T01:10:48.179Z,13.30
2023-02-27T01:11:51.588Z,10.30
2023-02-27T01:12:54.526Z,10.90
2023-02-27T01:13:57.476Z,9.30
2023-02-27T01:15:04.001Z,16.10
2023-02-27T01:16:08.599Z,10.10
2023-02-27T01:17:11.632Z,10.20
2023-02-27T01:18:14.560Z,10.40
2023-02-27T01:19:17.442Z,12.30
2023-02-27T01:20:20.347Z,10.00
2023-02-27T01:21:24.024Z,11.50
2023-02-27T01:22:27.017Z,11.80
2023-02-27T01:23:30.182Z,10.90
2023-02-27T01:24:33.635Z,15.10
2023-02-27T01:25:36.536Z,13.00
2023-02-27T01:26:39.510Z,11.50
2023-02-27T01:27:42.396Z,13.10
2023-02-27T01:28:45.259Z,11.90
2023-02-27T01:29:48.706Z,11.70
2023-02-27T01:30:52.345Z,12.50
2023-02-27T01:31:55.288Z,11.90
2023-02-27T01:32:58.211Z,11.80
2023-02-27T01:34:01.322Z,9.50
2023-02-27T01:35:04.659Z,10.60
2023-02-27T01:36:08.243Z,12.20
2023-02-27T01:37:11.120Z,12.80
2023-02-27T01:38:14.072Z,11.60
2023-02-27T01:39:17.100Z,12.20
2023-02-27T01:40:20.093Z,11.40
2023-02-27T01:41:23.282Z,11.00
2023-02-27T01:42:28.321Z,11.80
2023-02-27T01:43:33.145Z,12.50
2023-02-27T01:45:18.966Z,14.50
2023-02-27T01:46:22.159Z,12.60
2023-02-27T01:47:26.162Z,12.10
2023-02-27T01:48:37.445Z,11.00
2023-02-27T01:49:40.378Z,10.30
2023-02-27T01:50:49.793Z,10.70
2023-02-27T01:52:05.787Z,14.30
2023-02-27T01:53:09.217Z,12.20
2023-02-27T01:54:19.358Z,13.70
2023-02-27T01:55:24.745Z,13.10
2023-02-27T01:56:31.957Z,10.90
2023-02-27T01:57:36.153Z,12.60
2023-02-27T01:58:39.207Z,15.10
2023-02-27T01:59:42.520Z,10.90
2023-02-27T02:00:46.750Z,12.30
2023-02-27T02:01:50.861Z,13.30
2023-02-27T02:03:00.607Z,13.60
2023-02-27T02:04:18.799Z,13.90
2023-02-27T02:05:23.031Z,13.90
2023-02-27T02:06:26.378Z,10.70
2023-02-27T02:07:30.163Z,11.90
2023-02-27T02:08:39.766Z,13.60
2023-02-27T02:09:52.330Z,10.80
2023-02-27T02:10:57.924Z,10.50
2023-02-27T02:12:01.273Z,10.20
2023-02-27T02:13:04.197Z,10.10
2023-02-27T02:14:10.915Z,8.10
2023-02-27T02:15:17.089Z,9.90
2023-02-27T02:16:41.818Z,9.80
2023-02-27T02:17:51.180Z,9.00
2023-02-27T02:18:58.291Z,9.10
2023-02-27T02:20:22.981Z,10.40
2023-02-27T02:21:31.858Z,12.00
2023-02-27T02:23:11.344Z,10.90
2023-02-27T02:24:20.247Z,8.80
2023-02-27T02:25:41.540Z,10.40
2023-02-27T02:26:54.120Z,7.50
2023-02-27T02:28:18.332Z,11.50
2023-02-27T02:29:36.135Z,9.30
2023-02-27T02:30:53.887Z,11.10
2023-02-27T02:32:10.818Z,8.20
2023-02-27T02:33:38.297Z,8.70
2023-02-27T02:35:12.654Z,10.10
2023-02-27T02:36:30.521Z,9.90
2023-02-27T02:37:48.636Z,9.50
2023-02-27T02:38:56.800Z,10.50
2023-02-27T02:40:02.525Z,10.90
2023-02-27T02:41:15.572Z,9.70
2023-02-27T02:42:29.362Z,8.40
2023-02-27T02:44:08.041Z,10.90
2023-02-27T02:45:31.361Z,10.70
2023-02-27T02:46:46.253Z,9.90
2023-02-27T02:48:14.200Z,10.20
2023-02-27T02:50:16.330Z,10.90
2023-02-27T02:51:37.130Z,8.90
2023-02-27T02:52:51.896Z,9.50
2023-02-27T02:54:15.576Z,11.30
2023-02-27T02:55:29.350Z,9.60
2023-02-27T02:56:56.931Z,13.90
2023-02-27T02:58:18.800Z,11.40
2023-02-27T02:59:33.342Z,12.40
2023-02-27T03:00:46.691Z,10.70
2023-02-27T03:02:07.030Z,12.90
2023-02-27T03:03:28.002Z,13.00
2023-02-27T03:04:52.029Z,10.10
2023-02-27T03:06:10.002Z,10.70
2023-02-27T03:07:23.858Z,11.70
2023-02-27T03:08:31.084Z,11.30
2023-02-27T03:09:40.118Z,12.80
2023-02-27T03:10:50.358Z,11.60
2023-02-27T03:11:57.452Z,10.60
2023-02-27T03:13:28.221Z,14.80
2023-02-27T03:14:50.777Z,11.20
2023-02-27T03:16:16.162Z,12.70
2023-02-27T03:17:30.813Z,14.00
2023-02-27T03:18:43.974Z,12.20
2023-02-27T03:19:57.551Z,10.90
2023-02-27T03:21:14.162Z,13.50
2023-02-27T03:22:23.739Z,13.50
2023-02-27T03:23:42.849Z,13.10
2023-02-27T03:24:54.109Z,12.60
2023-02-27T03:25:58.621Z,12.10
2023-02-27T03:27:05.206Z,12.80
2023-02-27T03:28:11.510Z,12.70
2023-02-27T03:29:24.046Z,10.80
2023-02-27T03:30:27.308Z,13.10
2023-02-27T03:31:38.589Z,10.90
2023-02-27T03:33:01.544Z,12.80
2023-02-27T03:34:15.924Z,10.60
2023-02-27T03:35:19.216Z,10.80
2023-02-27T03:36:37.813Z,11.30
2023-02-27T03:38:05.068Z,11.00
2023-02-27T03:39:14.820Z,11.80
2023-02-27T03:41:54.693Z,13.00
2023-02-27T03:43:21.648Z,10.80
2023-02-27T03:44:40.546Z,10.50
2023-02-27T03:45:56.425Z,9.80
2023-02-27T03:47:00.020Z,13.50
2023-02-27T03:48:04.203Z,12.00
2023-02-27T03:49:07.786Z,13.00
2023-02-27T03:50:11.588Z,11.10
2023-02-27T03:51:18.505Z,9.50
2023-02-27T03:52:23.543Z,12.50
2023-02-27T03:53:36.017Z,11.00
2023-02-27T03:54:44.923Z,14.00
2023-02-27T03:55:49.108Z,7.30
2023-02-27T03:57:04.721Z,13.30
2023-02-27T03:58:07.719Z,12.30
2023-02-27T03:59:11.102Z,12.10
2023-02-27T04:00:20.825Z,14.40
2023-02-27T04:01:23.873Z,14.50
2023-02-27T04:02:27.505Z,15.80
2023-02-27T04:03:37.281Z,19.20
2023-02-27T04:04:41.336Z,23.30
2023-02-27T04:05:47.185Z,24.80
2023-02-27T04:07:24.304Z,24.10
2023-02-27T04:08:38.261Z,27.60
2023-02-27T04:10:38.423Z,29.00
2023-02-27T04:12:12.014Z,34.30
2023-02-27T04:13:33.571Z,36.00
2023-02-27T04:14:59.413Z,31.40
2023-02-27T04:16:30.735Z,31.90
2023-02-27T04:17:49.604Z,26.80
2023-02-27T04:19:11.166Z,18.80
2023-02-27T04:20:45.152Z,24.40
2023-02-27T04:21:56.687Z,18.20
2023-02-27T04:23:17.343Z,17.30
2023-02-27T04:24:44.837Z,13.90
2023-02-27T04:25:57.719Z,12.70
2023-02-27T04:27:32.769Z,11.80
2023-02-27T04:28:53.950Z,11.00
2023-02-27T04:30:08.478Z,12.00
2023-02-27T04:31:20.490Z,12.50
2023-02-27T04:32:30.841Z,11.80
2023-02-27T04:33:57.398Z,10.30
2023-02-27T04:35:07.386Z,10.00
2023-02-27T04:36:27.249Z,11.80
2023-02-27T04:37:43.624Z,17.30
2023-02-27T04:39:03.198Z,25.20
2023-02-27T04:40:11.340Z,25.60
2023-02-27T04:41:25.385Z,21.10
2023-02-27T04:42:32.478Z,18.90
2023-02-27T04:43:38.459Z,17.80
2023-02-27T04:44:42.852Z,17.30
2023-02-27T04:45:47.008Z,17.00
2023-02-27T04:46:52.647Z,16.40
2023-02-27T04:48:07.215Z,15.10
2023-02-27T04:49:29.819Z,15.20
2023-02-27T04:50:40.195Z,15.00
2023-02-27T04:51:51.983Z,14.90
2023-02-27T04:53:03.619Z,15.00
2023-02-27T04:54:14.324Z,15.70
2023-02-27T04:55:30.621Z,13.80
2023-02-27T04:56:43.651Z,11.70
2023-02-27T04:57:56.868Z,14.00
2023-02-27T04:59:09.400Z,12.80
2023-02-27T05:00:13.935Z,11.00
2023-02-27T05:01:40.097Z,9.80
2023-02-27T05:02:47.711Z,10.20
2023-02-27T05:03:53.820Z,10.80
2023-02-27T05:05:00.428Z,9.90
2023-02-27T05:06:03.876Z,11.00
2023-02-27T05:07:11.084Z,8.40
2023-02-27T05:08:20.879Z,12.70
2023-02-27T05:10:51.250Z,7.70
2023-02-27T05:12:03.709Z,9.60
2023-02-27T05:13:18.138Z,7.10
2023-02-27T05:14:30.462Z,10.50
2023-02-27T05:15:47.257Z,9.50
2023-02-27T05:17:08.372Z,7.90
2023-02-27T05:18:16.930Z,8.90
2023-02-27T05:19:21.220Z,8.70
2023-02-27T05:20:29.781Z,7.40
2023-02-27T05:21:36.779Z,13.40
2023-02-27T05:23:08.591Z,9.20
2023-02-27T05:24:28.953Z,9.20
2023-02-27T05:26:24.493Z,8.30
2023-02-27T05:27:49.754Z,8.20
2023-02-27T05:29:06.467Z,8.20
2023-02-27T05:30:19.406Z,7.40
2023-02-27T05:31:33.446Z,9.90
2023-02-27T05:32:55.363Z,10.60
2023-02-27T05:34:30.718Z,8.60
2023-02-27T05:35:49.410Z,11.40
2023-02-27T05:37:04.969Z,9.70
2023-02-27T05:38:19.726Z,10.00
2023-02-27T05:39:26.020Z,11.00
2023-02-27T05:40:35.900Z,9.40
2023-02-27T05:41:50.880Z,8.70
2023-02-27T05:43:11.004Z,7.30
2023-02-27T05:44:25.880Z,8.00
2023-02-27T05:45:32.734Z,8.50
2023-02-27T05:46:39.784Z,9.00
2023-02-27T05:47:49.560Z,10.20
2023-02-27T05:48:57.393Z,10.30
2023-02-27T05:50:12.507Z,9.20
2023-02-27T05:51:17.199Z,9.70
2023-02-27T05:52:24.449Z,9.80
2023-02-27T05:53:33.722Z,10.30
2023-02-27T05:54:45.990Z,6.90
2023-02-27T05:55:52.530Z,7.80
2023-02-27T05:56:59.056Z,6.80
2023-02-27T05:58:18.711Z,7.90
2023-02-27T05:59:52.100Z,6.40
2023-02-27T06:01:00.407Z,9.50
2023-02-27T06:02:03.639Z,8.50
2023-02-27T06:03:07.011Z,9.00
2023-02-27T06:04:10.278Z,7.10
2023-02-27T06:05:19.575Z,7.60
2023-02-27T06:06:23.069Z,6.30
2023-02-27T06:07:45.350Z,6.60
2023-02-27T06:09:06.117Z,9.40
2023-02-27T06:10:14.025Z,8.00
2023-02-27T06:11:18.136Z,4.40
2023-02-27T06:12:21.006Z,6.60
2023-02-27T06:13:24.489Z,5.50
2023-02-27T06:14:28.141Z,5.50
2023-02-27T06:15:31.001Z,7.20
2023-02-27T06:16:38.182Z,6.10
2023-02-27T06:17:41.306Z,5.30
2023-02-27T06:18:44.173Z,4.50
2023-02-27T06:19:47.069Z,6.70
2023-02-27T06:20:50.180Z,7.30
2023-02-27T06:21:53.345Z,8.10
2023-02-27T06:22:56.224Z,4.90
2023-02-27T06:23:59.152Z,6.30
2023-02-27T06:25:02.440Z,7.10
2023-02-27T06:26:05.789Z,5.20
2023-02-27T06:27:08.662Z,6.40
2023-02-27T06:28:11.926Z,10.80
2023-02-27T06:29:14.804Z,7.70
2023-02-27T06:30:17.910Z,6.20
2023-02-27T06:31:20.888Z,6.50
2023-02-27T06:32:25.499Z,6.30
2023-02-27T06:33:28.587Z,6.40
2023-02-27T06:34:31.582Z,5.60
2023-02-27T06:35:34.531Z,5.40
2023-02-27T06:36:37.546Z,6.30
2023-02-27T06:37:40.421Z,6.20
2023-02-27T06:38:43.332Z,3.80
2023-02-27T06:39:46.140Z,5.30
2023-02-27T06:40:51.219Z,5.90
2023-02-27T06:41:54.344Z,6.40
2023-02-27T06:42:57.188Z,4.50
2023-02-27T06:44:00.473Z,6.10
2023-02-27T06:45:03.596Z,4.50
2023-02-27T06:46:06.459Z,3.20
2023-02-27T06:47:09.640Z,4.10
2023-02-27T06:48:13.211Z,5.90
2023-02-27T06:49:16.199Z,3.70
2023-02-27T06:50:19.134Z,2.50
2023-02-27T06:51:22.119Z,3.70
2023-02-27T06:52:24.925Z,3.90
2023-02-27T06:53:27.929Z,3.70
2023-02-27T06:54:31.857Z,3.70
2023-02-27T06:55:34.842Z,2.60
2023-02-27T06:56:37.778Z,2.50
2023-02-27T06:57:40.633Z,4.30
2023-02-27T06:58:43.447Z,5.40
2023-02-27T06:59:46.299Z,5.80
2023-02-27T07:00:49.110Z,5.10
2023-02-27T07:01:52.149Z,6.00
2023-02-27T07:02:55.036Z,3.90
2023-02-27T07:03:57.978Z,5.80
2023-02-27T07:05:03.160Z,7.70
2023-02-27T07:06:12.130Z,4.70
2023-02-27T07:07:35.977Z,3.80
2023-02-27T07:08:38.019Z,4.60
2023-02-27T07:10:00.850Z,6.80
2023-02-27T07:11:03.870Z,3.30
2023-02-27T07:12:08.066Z,6.20
2023-02-27T07:13:10.918Z,4.20
2023-02-27T07:14:17.125Z,4.80
2023-02-27T07:15:20.293Z,1.80
2023-02-27T07:16:23.330Z,2.70
2023-02-27T07:17:26.259Z,4.80
2023-02-27T07:18:29.175Z,2.90
2023-02-27T07:19:33.819Z,2.50
2023-02-27T07:20:37.178Z,3.20
2023-02-27T07:21:40.082Z,4.00
2023-02-27T07:22:42.962Z,5.60
2023-02-27T07:23:45.918Z,4.00
2023-02-27T07:24:48.877Z,6.70
2023-02-27T07:25:51.846Z,5.30
2023-02-27T07:26:55.014Z,6.50
2023-02-27T07:27:57.949Z,6.50
2023-02-27T07:29:00.865Z,3.00
2023-02-27T07:30:04.189Z,3.50
2023-02-27T07:31:07.221Z,4.30
2023-02-27T07:32:11.518Z,6.30
2023-02-27T07:33:14.493Z,3.50
2023-02-27T07:34:17.488Z,4.70
2023-02-27T07:35:20.401Z,3.80
2023-02-27T07:36:23.697Z,3.60
2023-02-27T07:37:28.281Z,6.10
2023-02-27T07:38:32.898Z,5.80
2023-02-27T07:39:35.798Z,2.80
2023-02-27T07:40:38.687Z,4.30
2023-02-27T07:41:42.128Z,3.00
2023-02-27T07:42:53.057Z,5.60
2023-02-27T07:43:56.250Z,4.30
2023-02-27T07:45:00.353Z,3.20
2023-02-27T07:46:04.162Z,3.70
2023-02-27T07:47:07.072Z,6.70
2023-02-27T07:48:11.138Z,4.10
2023-02-27T07:49:14.359Z,3.10
2023-02-27T07:50:17.634Z,3.80
2023-02-27T07:51:20.900Z,5.60
2023-02-27T07:52:24.962Z,3.60
2023-02-27T07:53:28.068Z,4.00
2023-02-27T07:54:31.166Z,3.00
2023-02-27T07:55:34.670Z,4.00
2023-02-27T07:56:37.696Z,3.90
2023-02-27T07:57:40.763Z,4.50
2023-02-27T07:58:43.599Z,3.60
2023-02-27T07:59:46.479Z,3.20
2023-02-27T08:00:49.376Z,5.70
2023-02-27T08:01:52.626Z,3.90
2023-02-27T08:02:55.512Z,3.20
2023-02-27T08:03:58.513Z,3.50
2023-02-27T08:05:01.435Z,3.00
2023-02-27T08:06:04.429Z,3.10
2023-02-27T08:07:08.278Z,1.70
2023-02-27T08:08:11.147Z,2.50
2023-02-27T08:09:14.295Z,4.90
2023-02-27T08:10:17.513Z,1.20
2023-02-27T08:11:20.347Z,3.00
2023-02-27T08:12:23.316Z,2.30
2023-02-27T08:13:48.555Z,2.20
2023-02-27T08:14:49.100Z,3.10
2023-02-27T08:15:52.077Z,2.10
2023-02-27T08:16:54.944Z,2.80
2023-02-27T08:17:58.348Z,2.90
2023-02-27T08:19:01.439Z,1.90
2023-02-27T08:20:05.213Z,2.00
2023-02-27T08:21:08.101Z,3.00
2023-02-27T08:22:12.152Z,2.40
2023-02-27T08:23:15.040Z,2.70
2023-02-27T08:24:18.059Z,2.20
2023-02-27T08:25:21.643Z,2.10
2023-02-27T08:26:24.546Z,3.40
2023-02-27T08:27:27.478Z,2.20
2023-02-27T08:28:30.430Z,2.20
2023-02-27T08:29:33.886Z,2.10
2023-02-27T08:30:36.766Z,3.80
2023-02-27T08:31:39.754Z,2.60
2023-02-27T08:32:43.342Z,1.80
2023-02-27T08:33:46.255Z,2.00
2023-02-27T08:34:49.109Z,1.70
2023-02-27T08:35:52.203Z,2.50
2023-02-27T08:36:55.538Z,1.70
2023-02-27T08:37:58.494Z,2.00
2023-02-27T08:39:01.389Z,3.90
2023-02-27T08:40:07.221Z,3.80
2023-02-27T08:41:10.112Z,2.30
2023-02-27T08:42:13.046Z,1.70
2023-02-27T08:43:15.867Z,1.50
2023-02-27T08:44:19.663Z,2.30
2023-02-27T08:45:22.611Z,2.60
2023-02-27T08:46:26.013Z,2.00
2023-02-27T08:47:29.079Z,2.30
2023-02-27T08:48:32.457Z,2.30
2023-02-27T08:49:35.491Z,2.20
2023-02-27T08:50:39.647Z,2.60
2023-02-27T08:51:42.530Z,2.30
2023-02-27T08:52:45.444Z,1.70
2023-02-27T08:53:48.405Z,1.70
2023-02-27T08:54:51.247Z,1.60
2023-02-27T08:55:54.133Z,2.10
2023-02-27T08:56:56.980Z,1.10
2023-02-27T08:57:59.869Z,1.90
2023-02-27T08:59:02.930Z,3.60
2023-02-27T09:00:07.561Z,2.70
2023-02-27T09:01:10.546Z,1.60
2023-02-27T09:02:14.010Z,1.40
2023-02-27T09:03:17.290Z,1.20
2023-02-27T09:04:21.128Z,2.20
2023-02-27T09:05:24.126Z,0.90
2023-02-27T09:06:27.391Z,2.20
2023-02-27T09:07:30.594Z,1.20
2023-02-27T09:08:33.581Z,1.90
2023-02-27T09:09:36.460Z,2.10
2023-02-27T09:10:39.649Z,2.40
2023-02-27T09:11:42.565Z,2.30
2023-02-27T09:12:45.496Z,1.90
2023-02-27T09:13:48.467Z,3.20
2023-02-27T09:14:51.279Z,2.00
2023-02-27T09:15:54.449Z,2.00
2023-02-27T09:16:58.418Z,2.00
2023-02-27T09:18:03.290Z,1.60
2023-02-27T09:19:06.896Z,2.10
2023-02-27T09:20:10.829Z,1.70
2023-02-27T09:21:14.252Z,4.40
2023-02-27T09:22:18.397Z,1.90
2023-02-27T09:23:21.236Z,1.90
2023-02-27T09:24:24.205Z,1.90
2023-02-27T09:25:27.800Z,1.20
2023-02-27T09:26:42.825Z,1.80
2023-02-27T09:27:48.747Z,2.90
2023-02-27T09:28:51.707Z,1.30
2023-02-27T09:29:56.403Z,1.80
2023-02-27T09:31:05.743Z,4.30
2023-02-27T09:32:08.956Z,1.70
2023-02-27T09:33:12.020Z,1.90
2023-02-27T09:34:14.948Z,2.90
2023-02-27T09:35:20.551Z,1.70
2023-02-27T09:36:24.623Z,2.60
2023-02-27T09:37:27.650Z,1.30
2023-02-27T09:38:30.490Z,1.90
2023-02-27T09:39:33.393Z,2.00
2023-02-27T09:40:42.026Z,2.20
2023-02-27T09:42:05.504Z,3.70
2023-02-27T09:43:15.809Z,1.90
2023-02-27T09:44:18.624Z,3.70
2023-02-27T09:45:25.775Z,2.50
2023-02-27T09:46:29.594Z,1.70
2023-02-27T09:47:40.080Z,1.60
2023-02-27T09:48:47.730Z,1.70
2023-02-27T09:49:59.327Z,3.30
2023-02-27T09:51:02.893Z,1.60
2023-02-27T09:52:05.738Z,2.70
2023-02-27T09:53:22.721Z,3.60
2023-02-27T09:54:31.469Z,1.60
2023-02-27T09:55:40.299Z,1.70
2023-02-27T09:56:51.248Z,1.30
2023-02-27T09:58:20.001Z,2.30
2023-02-27T09:59:47.683Z,3.80
2023-02-27T10:01:28.356Z,4.10
2023-02-27T10:02:53.028Z,2.90
2023-02-27T10:04:14.466Z,2.40
2023-02-27T10:05:42.520Z,3.60
2023-02-27T10:06:52.172Z,1.60
2023-02-27T10:08:26.523Z,3.30
2023-02-27T10:09:32.438Z,2.30
2023-02-27T10:11:00.578Z,4.60
2023-02-27T10:12:07.696Z,2.00
2023-02-27T10:13:30.674Z,2.30
2023-02-27T10:14:33.470Z,2.70
2023-02-27T10:15:41.909Z,2.00
2023-02-27T10:16:52.173Z,1.30
2023-02-27T10:18:01.550Z,2.00
2023-02-27T10:19:15.680Z,4.60
2023-02-27T10:20:29.266Z,2.50
2023-02-27T10:21:44.015Z,1.60
2023-02-27T10:22:49.132Z,2.80
2023-02-27T10:24:02.256Z,2.70
2023-02-27T10:25:29.748Z,2.60
2023-02-27T10:26:42.356Z,4.00
2023-02-27T10:27:49.014Z,2.10
2023-02-27T10:28:52.224Z,2.20
2023-02-27T10:30:11.153Z,3.80
2023-02-27T10:31:31.695Z,2.90
2023-02-27T10:32:36.349Z,3.10
2023-02-27T10:33:42.041Z,3.50
2023-02-27T10:35:05.618Z,3.10
2023-02-27T10:36:18.083Z,3.70
2023-02-27T10:37:30.498Z,3.00
2023-02-27T10:38:44.761Z,4.60
2023-02-27T10:40:00.482Z,3.60
2023-02-27T10:41:04.790Z,3.50
2023-02-27T10:42:11.807Z,3.10
2023-02-27T10:43:19.324Z,2.30
2023-02-27T10:44:24.604Z,2.70
2023-02-27T10:45:27.639Z,2.30
2023-02-27T10:46:32.999Z,2.10
2023-02-27T10:47:38.924Z,2.40
2023-02-27T10:48:41.966Z,1.80
2023-02-27T10:49:45.124Z,4.20
2023-02-27T10:50:52.584Z,3.50
2023-02-27T10:52:07.102Z,2.00
2023-02-27T10:53:24.817Z,2.00
2023-02-27T10:54:31.533Z,2.30
2023-02-27T10:55:38.349Z,2.10
2023-02-27T10:56:44.679Z,2.60
2023-02-27T10:57:47.659Z,2.90
2023-02-27T10:59:16.878Z,2.10
2023-02-27T11:00:44.100Z,3.30
2023-02-27T11:01:56.725Z,5.60
2023-02-27T11:03:00.111Z,3.70
2023-02-27T11:04:03.109Z,4.10
2023-02-27T11:05:31.381Z,3.80
2023-02-27T11:06:34.344Z,4.10
2023-02-27T11:07:38.756Z,3.10
2023-02-27T11:08:41.563Z,2.10
2023-02-27T11:09:59.945Z,3.40
2023-02-27T11:11:09.539Z,3.20
2023-02-27T11:12:27.043Z,2.00
2023-02-27T11:13:33.560Z,2.80
2023-02-27T11:14:49.687Z,3.30
2023-02-27T11:16:07.300Z,2.90
2023-02-27T11:17:22.344Z,4.00
2023-02-27T11:18:30.278Z,2.00
2023-02-27T11:19:35.031Z,3.00
2023-02-27T11:20:40.732Z,7.80
2023-02-27T11:22:15.054Z,3.10
2023-02-27T11:23:21.897Z,3.40
2023-02-27T11:24:24.767Z,2.10
2023-02-27T11:25:27.590Z,2.20
2023-02-27T11:26:35.539Z,2.40
2023-02-27T11:27:38.596Z,2.40
2023-02-27T11:28:42.506Z,2.70
2023-02-27T11:29:55.878Z,2.20
2023-02-27T11:31:14.931Z,4.40
2023-02-27T11:32:20.194Z,4.40
2023-02-27T11:33:24.544Z,2.30
2023-02-27T11:34:38.968Z,2.20
2023-02-27T11:35:41.955Z,2.10
2023-02-27T11:36:47.504Z,3.00
2023-02-27T11:37:52.614Z,3.40
2023-02-27T11:38:56.957Z,3.00
2023-02-27T11:40:10.824Z,3.10
2023-02-27T11:41:14.379Z,5.10
2023-02-27T11:42:30.819Z,3.30
2023-02-27T11:43:52.546Z,2.90
2023-02-27T11:45:03.423Z,3.70
2023-02-27T11:46:34.361Z,1.90
2023-02-27T11:47:40.581Z,2.90
2023-02-27T11:49:03.229Z,6.20
2023-02-27T11:50:09.340Z,4.90
2023-02-27T11:51:24.616Z,2.50
2023-02-27T11:52:41.117Z,3.10
2023-02-27T11:54:09.643Z,2.20
2023-02-27T11:55:21.053Z,2.30
2023-02-27T11:56:34.139Z,1.20
2023-02-27T11:57:41.474Z,2.60
2023-02-27T11:58:56.375Z,3.10
2023-02-27T12:00:14.263Z,2.00
2023-02-27T12:01:47.082Z,2.20
2023-02-27T12:03:22.056Z,5.60
2023-02-27T12:04:33.741Z,3.10
2023-02-27T12:06:00.432Z,2.70
2023-02-27T12:07:13.054Z,2.70
2023-02-27T12:08:34.778Z,2.20
2023-02-27T12:09:46.926Z,2.90
2023-02-27T12:11:18.539Z,1.40
2023-02-27T12:12:46.366Z,2.60
2023-02-27T12:13:54.542Z,1.60
2023-02-27T12:15:05.819Z,1.80
2023-02-27T12:16:32.421Z,2.20
2023-02-27T12:17:45.015Z,1.60
2023-02-27T12:18:57.052Z,2.30
2023-02-27T12:20:41.970Z,3.70
2023-02-27T12:21:50.087Z,3.10
2023-02-27T12:22:54.579Z,2.90
2023-02-27T12:24:07.852Z,3.80
2023-02-27T12:25:22.214Z,2.40
2023-02-27T12:26:30.227Z,3.20
2023-02-27T12:27:49.241Z,2.50
2023-02-27T12:28:57.961Z,6.20
2023-02-27T12:30:07.753Z,1.80
2023-02-27T12:32:27.992Z,2.60
2023-02-27T12:33:52.919Z,2.90
2023-02-27T12:35:14.176Z,3.50
2023-02-27T12:36:17.099Z,2.80
2023-02-27T12:37:29.966Z,4.80
2023-02-27T12:38:33.153Z,2.60
2023-02-27T12:39:37.052Z,2.40
2023-02-27T12:40:53.309Z,3.20
2023-02-27T12:42:01.844Z,3.60
2023-02-27T12:43:19.271Z,5.00
2023-02-27T12:44:38.036Z,2.70
2023-02-27T12:46:05.868Z,2.20
2023-02-27T12:47:14.397Z,2.30
2023-02-27T12:48:55.084Z,2.10
2023-02-27T12:50:05.483Z,2.60
2023-02-27T12:51:29.262Z,3.60
2023-02-27T12:52:43.138Z,3.10
2023-02-27T12:54:00.532Z,2.30
2023-02-27T12:55:21.044Z,3.60
2023-02-27T12:56:29.253Z,3.70
2023-02-27T12:57:45.990Z,3.60
2023-02-27T12:59:13.740Z,2.90
2023-02-27T13:00:20.329Z,2.40
2023-02-27T13:01:35.450Z,3.40
2023-02-27T13:03:00.957Z,2.50
2023-02-27T13:04:18.526Z,3.60
2023-02-27T13:05:51.039Z,3.00
2023-02-27T13:07:13.544Z,2.40
2023-02-27T13:08:53.856Z,3.50
2023-02-27T13:10:19.295Z,6.00
2023-02-27T13:11:51.550Z,5.20
2023-02-27T13:13:17.460Z,2.60
2023-02-27T13:14:44.592Z,3.70
2023-02-27T13:15:55.614Z,2.40
2023-02-27T13:17:10.691Z,2.70
2023-02-27T13:18:45.753Z,1.70
2023-02-27T13:19:55.047Z,3.80
2023-02-27T13:21:05.705Z,3.20
2023-02-27T13:22:14.270Z,1.60
2023-02-27T13:23:44.126Z,3.50
2023-02-27T13:24:51.194Z,2.50
2023-02-27T13:25:56.674Z,3.10
2023-02-27T13:27:16.196Z,4.30
2023-02-27T13:28:24.885Z,2.90
2023-02-27T13:29:38.868Z,2.70
2023-02-27T13:30:44.983Z,3.80
2023-02-27T13:32:43.108Z,4.20
2023-02-27T13:34:55.448Z,2.70
2023-02-27T13:36:10.329Z,2.40
2023-02-27T13:37:13.394Z,2.30
2023-02-27T13:38:45.683Z,2.40
2023-02-27T13:39:48.971Z,1.80
2023-02-27T13:40:52.562Z,3.60
2023-02-27T13:41:57.103Z,3.30
2023-02-27T13:43:51.096Z,6.10
2023-02-27T13:45:06.379Z,4.40
2023-02-27T13:46:31.249Z,3.60
2023-02-27T13:47:38.787Z,5.20
2023-02-27T13:48:47.062Z,2.90
2023-02-27T13:49:49.874Z,3.30
2023-02-27T13:50:52.962Z,3.50
2023-02-27T13:51:58.793Z,3.00
2023-02-27T13:53:10.734Z,3.60
2023-02-27T13:54:27.957Z,3.70
2023-02-27T13:55:37.821Z,4.80
2023-02-27T13:56:46.211Z,3.90
2023-02-27T13:57:49.184Z,2.90
2023-02-27T13:58:52.181Z,4.00
2023-02-27T13:59:59.362Z,4.90
2023-02-27T14:01:02.333Z,4.30
2023-02-27T14:02:31.128Z,3.40
2023-02-27T14:03:34.849Z,2.50
2023-02-27T14:05:00.669Z,1.80
2023-02-27T14:06:06.956Z,4.40
2023-02-27T14:07:18.708Z,3.20
2023-02-27T14:08:24.760Z,3.20
2023-02-27T14:09:37.519Z,3.70
2023-02-27T14:10:50.250Z,2.90
2023-02-27T14:11:57.943Z,2.70
2023-02-27T14:13:03.665Z,4.80
2023-02-27T14:14:09.833Z,3.80
2023-02-27T14:15:18.776Z,5.20
2023-02-27T14:16:40.203Z,3.60
2023-02-27T14:17:49.537Z,4.50
2023-02-27T14:18:57.228Z,8.40
2023-02-27T14:20:00.284Z,2.90
2023-02-27T14:21:03.426Z,3.90
2023-02-27T14:22:10.802Z,3.50
2023-02-27T14:23:17.113Z,3.80
2023-02-27T14:24:26.107Z,3.90
2023-02-27T14:25:51.178Z,3.90
2023-02-27T14:26:54.894Z,5.30
2023-02-27T14:28:00.277Z,3.00
2023-02-27T14:29:03.521Z,4.20
2023-02-27T14:30:10.103Z,2.50
2023-02-27T14:31:22.623Z,4.10
2023-02-27T14:32:32.619Z,3.80
2023-02-27T14:33:54.077Z,2.90
2023-02-27T14:34:57.273Z,4.60
2023-02-27T14:36:02.986Z,5.00
2023-02-27T14:37:17.222Z,2.90
2023-02-27T14:38:21.500Z,5.20
2023-02-27T14:39:32.402Z,3.60
2023-02-27T14:40:42.069Z,4.00
2023-02-27T14:42:07.564Z,4.70
2023-02-27T14:43:17.938Z,4.00
2023-02-27T14:44:23.924Z,2.90
2023-02-27T14:45:31.036Z,4.50
2023-02-27T14:46:38.616Z,4.70
2023-02-27T14:47:42.180Z,3.90
2023-02-27T14:48:45.637Z,10.10
2023-02-27T14:49:48.944Z,5.10
2023-02-27T14:50:53.878Z,3.00
2023-02-27T14:51:57.533Z,3.80
2023-02-27T14:53:01.717Z,3.00
2023-02-27T14:54:16.776Z,4.40
2023-02-27T14:55:30.132Z,4.10
2023-02-27T14:56:34.588Z,2.60
2023-02-27T14:57:37.733Z,2.90
2023-02-27T14:58:55.589Z,3.70
2023-02-27T15:00:06.129Z,4.10
2023-02-27T15:01:10.106Z,3.40
2023-02-27T15:02:28.290Z,3.60
2023-02-27T15:03:47.515Z,2.90
2023-02-27T15:04:56.218Z,6.40
2023-02-27T15:06:01.838Z,4.70
2023-02-27T15:07:28.022Z,10.00
2023-02-27T15:08:38.200Z,3.90
2023-02-27T15:09:45.389Z,6.10
2023-02-27T15:10:48.494Z,6.90
2023-02-27T15:12:03.976Z,3.60
2023-02-27T15:13:07.122Z,4.30
2023-02-27T15:14:20.816Z,5.00
2023-02-27T15:15:23.862Z,2.90
2023-02-27T15:16:32.379Z,3.60
2023-02-27T15:17:41.536Z,4.00
2023-02-27T15:18:49.732Z,4.10
2023-02-27T15:19:58.214Z,5.50
2023-02-27T15:21:01.131Z,6.20
2023-02-27T15:22:21.398Z,4.80
2023-02-27T15:23:29.609Z,4.10
2023-02-27T15:24:49.625Z,5.90
2023-02-27T15:25:59.440Z,3.90